Time;durP1;ratioP1;P1;durP2;ratioP2;P2;SDS_P1;SDS_P2;PMS_P1;PMS_P2;Temp;Humidity;BMP_temperature;BMP_pressure;BME280_temperature;BME280_humidity;BME280_pressure;Samples;Min_cycle;Max_cycle;Signal;HPM_P1;HPM_P2
2023/03/10 00:01:19;;;;;;;3.40;2.00;;;10.30;99.90;;;;;;5033421;28;20494;-67
2023/03/10 00:03:44;;;;;;;4.10;1.83;;;10.30;99.90;;;;;;5032014;28;20808;-67
2023/03/10 00:06:12;;;;;;;2.83;1.60;;;10.30;99.90;;;;;;5048708;28;20455;-69
2023/03/10 00:08:38;;;;;;;3.77;2.10;;;10.20;99.90;;;;;;5032377;28;20198;-69
2023/03/10 00:11:04;;;;;;;2.17;1.80;;;10.20;99.90;;;;;;5040615;28;20440;-69
2023/03/10 00:13:30;;;;;;;6.30;2.30;;;10.20;99.90;;;;;;5036929;28;20482;-69
2023/03/10 00:15:56;;;;;;;2.97;1.90;;;10.20;99.90;;;;;;5031208;28;20436;-70
2023/03/10 00:18:21;;;;;;;2.30;2.10;;;10.20;99.90;;;;;;5034521;28;20209;-69
2023/03/10 00:20:50;;;;;;;2.40;1.80;;;10.10;99.90;;;;;;5044449;28;20178;-69
2023/03/10 00:23:16;;;;;;;3.23;1.90;;;10.10;99.90;;;;;;5039671;28;20178;-69
2023/03/10 00:25:41;;;;;;;4.97;2.27;;;10.10;99.90;;;;;;5033000;28;20487;-67
2023/03/10 00:28:07;;;;;;;2.13;1.83;;;10.00;99.90;;;;;;5039733;28;20209;-68
2023/03/10 00:30:34;;;;;;;2.20;1.50;;;10.00;99.90;;;;;;5040937;28;20672;-68
2023/03/10 00:33:00;;;;;;;4.53;2.13;;;10.00;99.90;;;;;;5041284;28;20174;-68
2023/03/10 00:35:26;;;;;;;2.20;1.80;;;9.90;99.90;;;;;;5051047;28;20531;-67
2023/03/10 00:37:52;;;;;;;3.83;2.30;;;9.90;99.90;;;;;;5034857;28;20499;-68
2023/03/10 00:40:18;;;;;;;6.80;1.90;;;9.90;99.90;;;;;;5025415;28;20966;-68
2023/03/10 00:42:43;;;;;;;3.20;1.90;;;9.90;99.90;;;;;;5034342;28;20432;-68
2023/03/10 00:45:09;;;;;;;1.60;1.50;;;9.90;99.90;;;;;;5044869;28;20191;-68
2023/03/10 00:47:35;;;;;;;7.50;1.83;;;9.90;99.90;;;;;;5042159;28;20324;-68
2023/03/10 00:50:00;;;;;;;5.63;1.83;;;9.90;99.90;;;;;;5028403;28;20546;-68
2023/03/10 00:52:30;;;;;;;4.77;1.90;;;9.90;99.90;;;;;;5032081;28;20170;-68
2023/03/10 00:54:55;;;;;;;3.23;1.53;;;9.90;99.90;;;;;;5042362;28;20909;-68
2023/03/10 00:57:21;;;;;;;2.57;1.77;;;9.80;99.90;;;;;;5033734;28;20455;-68
2023/03/10 00:59:50;;;;;;;3.70;3.40;;;9.80;99.90;;;;;;5032141;28;20714;-68
2023/03/10 01:02:16;;;;;;;3.37;1.73;;;9.80;99.90;;;;;;5037670;28;20713;-68
2023/03/10 01:04:41;;;;;;;3.43;1.63;;;9.90;99.90;;;;;;5030305;28;20528;-68
2023/03/10 01:07:07;;;;;;;2.77;1.70;;;9.90;99.90;;;;;;5040091;28;20568;-68
2023/03/10 01:09:32;;;;;;;2.07;1.60;;;9.90;99.90;;;;;;5031901;28;20253;-68
2023/03/10 01:11:58;;;;;;;2.13;1.50;;;9.90;99.90;;;;;;5042960;28;20712;-68
2023/03/10 01:14:24;;;;;;;3.10;1.50;;;9.80;99.90;;;;;;5034470;28;20189;-68
2023/03/10 01:16:49;;;;;;;7.30;1.90;;;9.80;99.90;;;;;;5039182;28;20193;-68
2023/03/10 01:19:17;;;;;;;2.67;1.80;;;9.80;99.90;;;;;;5045862;28;20193;-67
2023/03/10 01:21:42;;;;;;;3.50;1.63;;;9.80;99.90;;;;;;5031037;28;20178;-67
2023/03/10 01:24:13;;;;;;;2.33;1.80;;;9.70;99.90;;;;;;5043388;28;20436;-67
2023/03/10 01:26:38;;;;;;;3.03;1.63;;;9.70;99.90;;;;;;5045162;28;20243;-67
2023/03/10 01:29:04;;;;;;;5.10;1.90;;;9.70;99.90;;;;;;5048328;28;20451;-67
2023/03/10 01:31:30;;;;;;;2.73;1.77;;;9.60;99.90;;;;;;5042516;28;20217;-67
2023/03/10 01:33:55;;;;;;;4.60;1.87;;;9.70;99.90;;;;;;5032695;28;20233;-68
2023/03/10 01:36:24;;;;;;;3.07;1.93;;;9.70;99.90;;;;;;5034721;28;20178;-67
2023/03/10 01:38:51;;;;;;;2.73;1.40;;;9.70;99.90;;;;;;5030759;28;20210;-68
2023/03/10 01:41:17;;;;;;;2.63;1.77;;;9.70;99.90;;;;;;5041857;28;20531;-67
2023/03/10 01:43:45;;;;;;;2.67;1.97;;;9.70;99.90;;;;;;5032862;28;20535;-67
2023/03/10 01:46:40;;;;;;;7.87;1.90;;;9.70;99.90;;;;;;5027667;28;20215;-67
2023/03/10 01:49:38;;;;;;;4.20;1.50;;;9.70;99.90;;;;;;5038686;28;20428;-67
2023/03/10 01:52:09;;;;;;;3.30;2.00;;;9.70;99.90;;;;;;5029903;28;20965;-67
2023/03/10 01:54:42;;;;;;;4.77;1.63;;;9.80;99.90;;;;;;5039252;28;20914;-66
2023/03/10 01:57:09;;;;;;;1.63;1.40;;;9.90;99.90;;;;;;5031520;28;20457;-67
2023/03/10 01:59:35;;;;;;;7.40;3.70;;;9.90;99.90;;;;;;5036338;28;20479;-67
2023/03/10 02:02:02;;;;;;;2.40;1.53;;;9.90;99.90;;;;;;5032131;28;20549;-67
2023/03/10 02:04:47;;;;;;;1.43;0.97;;;10.00;99.90;;;;;;5041185;28;20264;-67
2023/03/10 02:07:15;;;;;;;2.10;1.47;;;10.00;99.90;;;;;;5038051;28;20500;-67
2023/03/10 02:09:44;;;;;;;2.37;1.27;;;10.10;99.90;;;;;;5044174;28;20433;-67
2023/03/10 02:12:11;;;;;;;2.17;1.30;;;10.10;99.90;;;;;;5033639;28;20444;-67
2023/03/10 02:14:37;;;;;;;2.67;1.50;;;10.10;99.90;;;;;;5043730;28;20808;-67
2023/03/10 02:17:09;;;;;;;1.50;1.30;;;10.00;99.90;;;;;;5038755;28;20463;-67
2023/03/10 02:19:38;;;;;;;1.30;1.13;;;10.00;99.90;;;;;;5035945;28;20973;-67
2023/03/10 02:22:07;;;;;;;3.20;1.33;;;10.10;99.90;;;;;;5045824;28;20432;-67
2023/03/10 02:24:44;;;;;;;1.80;1.53;;;10.00;99.90;;;;;;5034174;28;20495;-66
2023/03/10 02:27:24;;;;;;;1.20;1.10;;;10.00;99.90;;;;;;5033462;28;20863;-67
2023/03/10 02:30:20;;;;;;;1.70;0.97;;;9.90;99.90;;;;;;5043259;28;20431;-67
2023/03/10 02:32:49;;;;;;;1.20;0.90;;;9.90;99.90;;;;;;5037767;28;20451;-67
2023/03/10 02:35:15;;;;;;;1.33;0.80;;;9.80;99.90;;;;;;5041670;28;20431;-67
2023/03/10 02:37:41;;;;;;;1.97;0.90;;;9.80;99.90;;;;;;5050496;28;20941;-67
2023/03/10 02:40:36;;;;;;;1.43;1.17;;;9.80;99.90;;;;;;5047625;28;20432;-67
2023/03/10 02:43:26;;;;;;;1.83;1.13;;;9.70;99.90;;;;;;5046971;28;20200;-66
2023/03/10 02:45:55;;;;;;;1.50;1.40;;;9.60;99.90;;;;;;5025585;28;20467;-69
2023/03/10 02:48:25;;;;;;;3.20;1.10;;;9.60;99.90;;;;;;5031104;28;20485;-69
2023/03/10 02:50:52;;;;;;;2.10;1.13;;;9.60;99.90;;;;;;5051563;28;20432;-69
2023/03/10 02:53:21;;;;;;;4.43;1.00;;;9.50;99.90;;;;;;5051967;28;20428;-70
2023/03/10 02:55:46;;;;;;;3.43;1.27;;;9.50;99.90;;;;;;5034919;28;20425;-69
2023/03/10 02:58:12;;;;;;;1.30;1.20;;;9.40;99.90;;;;;;5037613;28;20452;-69
2023/03/10 03:00:39;;;;;;;2.83;1.23;;;9.40;99.90;;;;;;5037435;28;20196;-69
2023/03/10 03:03:06;;;;;;;0.90;0.90;;;9.30;99.90;;;;;;5032139;28;22023;-69
2023/03/10 03:05:32;;;;;;;1.80;1.23;;;9.30;99.90;;;;;;5030348;28;20468;-69
2023/03/10 03:07:58;;;;;;;1.40;1.10;;;9.20;99.90;;;;;;5031633;28;20452;-70
2023/03/10 03:10:24;;;;;;;1.57;1.03;;;9.20;99.90;;;;;;5039989;28;21011;-69
2023/03/10 03:12:50;;;;;;;2.67;1.27;;;9.20;99.90;;;;;;5034359;28;20179;-69
2023/03/10 03:15:16;;;;;;;2.10;0.90;;;9.20;99.90;;;;;;5032771;28;20636;-69
2023/03/10 03:17:42;;;;;;;3.43;1.20;;;9.20;99.90;;;;;;5032768;28;20461;-69
2023/03/10 03:20:13;;;;;;;1.07;0.90;;;9.20;99.90;;;;;;5030522;28;20526;-68
2023/03/10 03:22:42;;;;;;;1.07;1.00;;;9.20;99.90;;;;;;5038067;28;20169;-69
2023/03/10 03:25:09;;;;;;;0.90;0.80;;;9.20;99.90;;;;;;5039321;28;20442;-69
2023/03/10 03:27:36;;;;;;;0.80;0.80;;;9.20;99.90;;;;;;5036324;28;20825;-69
2023/03/10 03:30:04;;;;;;;1.67;0.97;;;9.20;99.90;;;;;;5033422;28;20440;-69
2023/03/10 03:32:29;;;;;;;1.10;0.93;;;9.20;99.90;;;;;;5032054;28;20479;-69
2023/03/10 03:34:55;;;;;;;3.27;1.00;;;9.20;99.90;;;;;;5034943;28;20432;-69
2023/03/10 03:37:20;;;;;;;1.43;0.97;;;9.20;99.90;;;;;;5040831;28;20189;-69
2023/03/10 03:39:46;;;;;;;2.00;1.00;;;9.20;99.90;;;;;;5030511;28;20605;-68
2023/03/10 03:42:11;;;;;;;1.37;0.83;;;9.10;99.90;;;;;;5037492;28;20187;-69
2023/03/10 03:44:37;;;;;;;1.00;0.73;;;9.10;99.90;;;;;;5032239;28;20221;-69
2023/03/10 03:47:03;;;;;;;1.67;0.90;;;9.10;99.90;;;;;;5048452;28;20208;-69
2023/03/10 03:49:29;;;;;;;0.90;0.70;;;9.10;99.90;;;;;;5040242;28;20534;-68
2023/03/10 03:51:54;;;;;;;0.70;0.70;;;9.10;99.90;;;;;;5031175;28;20437;-68
2023/03/10 03:54:20;;;;;;;0.70;0.70;;;9.10;99.90;;;;;;5033640;28;20187;-69
2023/03/10 03:56:45;;;;;;;0.93;0.70;;;9.10;99.90;;;;;;5044166;28;20631;-68
2023/03/10 03:59:11;;;;;;;0.60;0.60;;;9.10;99.90;;;;;;5043512;28;20196;-69
2023/03/10 04:01:36;;;;;;;1.60;0.77;;;9.10;99.90;;;;;;5032570;28;20263;-69
2023/03/10 04:04:02;;;;;;;0.63;0.63;;;9.10;99.90;;;;;;5036030;28;20718;-69
2023/03/10 04:06:27;;;;;;;0.57;0.57;;;9.10;99.90;;;;;;5037323;28;20201;-69
2023/03/10 04:08:53;;;;;;;1.10;0.60;;;9.10;99.90;;;;;;5050974;28;20203;-69
2023/03/10 04:11:18;;;;;;;1.93;0.60;;;9.10;99.90;;;;;;5044621;28;20178;-69
2023/03/10 04:13:44;;;;;;;0.70;0.70;;;9.10;99.90;;;;;;5034991;28;20178;-67
2023/03/10 04:16:09;;;;;;;1.00;0.80;;;9.10;99.90;;;;;;5039144;28;20228;-68
2023/03/10 04:18:35;;;;;;;0.83;0.70;;;9.10;99.90;;;;;;5031187;28;20241;-69
2023/03/10 04:21:00;;;;;;;0.50;0.50;;;9.10;99.90;;;;;;5032768;28;20186;-69
2023/03/10 04:23:26;;;;;;;2.20;0.50;;;9.10;99.90;;;;;;5030532;28;20542;-68
2023/03/10 04:25:52;;;;;;;0.70;0.70;;;9.00;99.90;;;;;;5041731;28;20197;-68
2023/03/10 04:28:18;;;;;;;1.53;0.60;;;8.90;99.90;;;;;;5032093;28;20194;-69
2023/03/10 04:30:44;;;;;;;1.67;0.80;;;8.90;99.90;;;;;;5039547;28;20435;-69
2023/03/10 04:33:11;;;;;;;1.37;0.67;;;8.90;99.90;;;;;;5030445;28;20185;-69
2023/03/10 04:35:42;;;;;;;1.40;0.70;;;8.90;99.90;;;;;;5038136;28;20489;-68
2023/03/10 04:38:08;;;;;;;1.03;0.60;;;8.90;99.90;;;;;;5029277;28;20494;-68
2023/03/10 04:40:34;;;;;;;1.57;0.90;;;8.80;99.90;;;;;;5031637;28;20486;-69
2023/03/10 04:43:00;;;;;;;0.70;0.60;;;8.80;99.90;;;;;;5030521;28;20433;-68
2023/03/10 04:45:25;;;;;;;1.33;1.13;;;8.90;99.90;;;;;;5029924;28;20184;-69
2023/03/10 04:47:51;;;;;;;0.77;0.73;;;8.90;99.90;;;;;;5031235;28;21035;-68
2023/03/10 04:50:16;;;;;;;0.63;0.60;;;8.90;99.90;;;;;;5041418;28;20178;-69
2023/03/10 04:52:45;;;;;;;3.50;1.00;;;8.90;99.90;;;;;;5031386;28;20174;-68
2023/03/10 04:55:12;;;;;;;2.03;0.80;;;9.00;99.90;;;;;;5049883;28;20178;-69
2023/03/10 04:57:38;;;;;;;1.60;0.97;;;9.00;99.90;;;;;;5041395;28;20612;-69
2023/03/10 05:00:06;;;;;;;0.87;0.83;;;8.90;99.90;;;;;;5047733;28;20516;-68
2023/03/10 05:02:36;;;;;;;1.80;0.73;;;8.90;99.90;;;;;;5035652;28;20458;-69
2023/03/10 05:05:02;;;;;;;2.30;1.10;;;8.80;99.90;;;;;;5031744;28;20460;-69
2023/03/10 05:07:27;;;;;;;1.33;0.90;;;8.70;99.90;;;;;;5048232;28;20544;-69
2023/03/10 05:09:53;;;;;;;1.67;1.17;;;8.70;99.90;;;;;;5048975;28;20217;-69
2023/03/10 05:12:19;;;;;;;1.10;0.80;;;8.60;99.90;;;;;;5029688;28;20182;-68
2023/03/10 05:14:44;;;;;;;1.30;1.20;;;8.60;99.90;;;;;;5035392;28;20178;-69
2023/03/10 05:17:10;;;;;;;2.67;1.00;;;8.60;99.90;;;;;;5036989;28;20214;-68
2023/03/10 05:19:36;;;;;;;1.03;0.80;;;8.50;99.90;;;;;;5043420;28;20269;-69
2023/03/10 05:22:04;;;;;;;1.13;1.03;;;8.50;99.90;;;;;;5041089;28;21186;-69
2023/03/10 05:24:30;;;;;;;2.03;1.03;;;8.50;99.90;;;;;;5043582;28;20567;-69
2023/03/10 05:26:55;;;;;;;1.27;0.93;;;8.40;99.90;;;;;;5038159;28;21008;-68
2023/03/10 05:29:21;;;;;;;2.20;0.93;;;8.40;99.90;;;;;;5036023;28;20522;-69
2023/03/10 05:31:47;;;;;;;1.20;1.00;;;8.40;99.90;;;;;;5031556;28;20265;-68
2023/03/10 05:34:13;;;;;;;1.43;1.13;;;8.40;99.90;;;;;;5031458;28;20174;-69
2023/03/10 05:36:39;;;;;;;11.00;8.60;;;8.40;99.90;;;;;;5034385;28;20616;-69
2023/03/10 05:39:06;;;;;;;3.90;1.37;;;8.40;99.90;;;;;;5032800;28;20548;-69
2023/03/10 05:41:32;;;;;;;1.87;1.10;;;8.40;99.90;;;;;;5034551;28;20821;-69
2023/03/10 05:43:57;;;;;;;2.50;1.10;;;8.50;99.90;;;;;;5038841;28;20440;-69
2023/03/10 05:46:23;;;;;;;4.93;1.27;;;8.50;99.90;;;;;;5040717;28;20509;-69
2023/03/10 05:48:49;;;;;;;2.97;0.80;;;8.60;99.90;;;;;;5035277;28;20222;-69
2023/03/10 05:51:14;;;;;;;6.53;1.27;;;8.70;99.90;;;;;;5036102;28;20188;-69
2023/03/10 05:53:40;;;;;;;2.03;0.90;;;8.70;99.90;;;;;;5037548;28;20674;-69
2023/03/10 05:56:09;;;;;;;0.93;0.90;;;8.70;99.90;;;;;;5043240;28;20547;-69
2023/03/10 05:58:34;;;;;;;2.47;1.13;;;8.80;99.90;;;;;;5048119;28;20463;-68
2023/03/10 06:01:01;;;;;;;1.60;0.97;;;8.80;99.90;;;;;;5045368;28;20454;-68
2023/03/10 06:03:28;;;;;;;1.73;1.63;;;8.80;99.90;;;;;;5029869;28;20182;-68
2023/03/10 06:05:55;;;;;;;1.00;0.93;;;8.80;99.90;;;;;;5037647;28;20564;-68
2023/03/10 06:08:20;;;;;;;4.50;1.30;;;8.80;99.90;;;;;;5030193;28;20460;-69
2023/03/10 06:10:46;;;;;;;4.20;1.27;;;8.80;99.90;;;;;;5035087;28;20948;-69
2023/03/10 06:13:11;;;;;;;1.37;1.10;;;8.60;99.90;;;;;;5049217;28;20224;-69
2023/03/10 06:15:37;;;;;;;2.27;1.20;;;8.50;99.90;;;;;;5032530;28;20206;-68
2023/03/10 06:18:02;;;;;;;2.87;1.00;;;8.50;99.90;;;;;;5036632;28;20218;-69
2023/03/10 06:20:29;;;;;;;4.00;1.00;;;8.40;99.90;;;;;;5046145;28;20195;-68
2023/03/10 06:22:54;;;;;;;2.80;1.20;;;8.30;99.90;;;;;;5032558;28;20458;-69
2023/03/10 06:25:20;;;;;;;5.10;1.50;;;8.30;99.90;;;;;;5036442;28;20182;-69
2023/03/10 06:27:46;;;;;;;1.00;1.00;;;8.20;99.90;;;;;;5039801;28;20255;-69
2023/03/10 06:30:12;;;;;;;0.90;0.70;;;8.20;99.90;;;;;;5052287;28;20201;-69
2023/03/10 06:32:38;;;;;;;4.70;1.40;;;8.10;99.90;;;;;;5041917;28;20435;-68
2023/03/10 06:35:04;;;;;;;3.70;1.20;;;8.10;99.90;;;;;;5035087;28;20444;-68
2023/03/10 06:37:29;;;;;;;2.97;0.90;;;8.00;99.90;;;;;;5041046;28;20209;-68
2023/03/10 06:39:55;;;;;;;2.70;1.27;;;8.00;99.90;;;;;;5043508;28;20440;-68
2023/03/10 06:42:20;;;;;;;2.47;2.10;;;7.90;99.90;;;;;;5036330;28;20209;-69
2023/03/10 06:44:46;;;;;;;1.20;0.73;;;7.90;99.90;;;;;;5040700;28;20804;-69
2023/03/10 06:47:11;;;;;;;1.70;0.70;;;7.90;99.90;;;;;;5037535;28;20217;-68
2023/03/10 06:49:37;;;;;;;0.97;0.80;;;7.90;99.90;;;;;;5041284;28;20659;-68
2023/03/10 06:52:02;;;;;;;3.23;1.07;;;7.90;99.90;;;;;;5033011;28;20185;-69
2023/03/10 06:54:28;;;;;;;3.70;0.90;;;7.90;99.90;;;;;;5032985;28;20206;-69
2023/03/10 06:56:54;;;;;;;1.23;0.90;;;7.90;99.90;;;;;;5043298;28;20268;-69
2023/03/10 06:59:19;;;;;;;3.23;0.80;;;8.00;99.90;;;;;;5030019;28;20178;-69
2023/03/10 07:01:45;;;;;;;1.83;1.00;;;8.10;99.90;;;;;;5039143;28;20174;-69
2023/03/10 07:04:11;;;;;;;1.23;0.90;;;8.60;99.90;;;;;;5035905;28;20236;-68
2023/03/10 07:06:37;;;;;;;4.10;2.00;;;8.80;99.90;;;;;;5031619;28;20219;-69
2023/03/10 07:09:03;;;;;;;1.83;0.83;;;8.80;99.90;;;;;;5032209;28;20548;-68
2023/03/10 07:11:28;;;;;;;1.23;0.70;;;8.70;99.90;;;;;;5040846;28;20228;-68
2023/03/10 07:13:54;;;;;;;2.97;1.57;;;8.70;99.90;;;;;;5032345;28;21115;-69
2023/03/10 07:16:20;;;;;;;2.10;1.03;;;8.70;99.90;;;;;;5040485;28;20212;-68
2023/03/10 07:18:46;;;;;;;1.47;0.90;;;8.60;99.90;;;;;;5039999;28;20255;-69
2023/03/10 07:21:16;;;;;;;2.23;1.00;;;8.70;99.90;;;;;;5048715;28;20436;-69
2023/03/10 07:23:41;;;;;;;0.77;0.77;;;8.70;99.90;;;;;;5037166;28;20232;-68
2023/03/10 07:26:07;;;;;;;3.80;1.00;;;8.70;99.90;;;;;;5029975;28;20535;-68
2023/03/10 07:28:34;;;;;;;2.33;1.17;;;8.70;99.90;;;;;;5027888;28;20225;-69
2023/03/10 07:31:04;;;;;;;1.40;1.30;;;8.80;99.90;;;;;;5028181;28;20958;-70
2023/03/10 07:33:31;;;;;;;3.47;1.97;;;8.90;99.90;;;;;;5041441;28;20439;-69
2023/03/10 07:35:57;;;;;;;1.20;1.00;;;8.90;99.90;;;;;;5032798;28;20456;-70
2023/03/10 07:38:23;;;;;;;3.87;1.43;;;9.00;99.90;;;;;;5027617;28;20894;-70
2023/03/10 07:40:48;;;;;;;1.70;1.60;;;9.00;99.90;;;;;;5030063;28;20464;-70
2023/03/10 07:43:13;;;;;;;1.80;1.20;;;8.90;99.90;;;;;;5037939;28;20272;-70
2023/03/10 07:45:39;;;;;;;2.87;1.40;;;8.90;99.90;;;;;;5029486;28;20189;-70
2023/03/10 07:48:05;;;;;;;3.63;0.80;;;8.90;99.90;;;;;;5029011;28;20205;-70
2023/03/10 07:50:31;;;;;;;2.60;1.00;;;8.90;99.90;;;;;;5030588;28;20440;-70
2023/03/10 07:52:57;;;;;;;2.73;0.90;;;8.90;99.90;;;;;;5034139;28;20882;-70
2023/03/10 07:55:23;;;;;;;2.93;1.20;;;8.90;99.90;;;;;;5023156;28;20181;-70
2023/03/10 07:57:48;;;;;;;1.17;1.10;;;8.90;99.90;;;;;;5028269;28;20280;-70
2023/03/10 08:00:15;;;;;;;7.17;2.87;;;8.90;99.90;;;;;;5030715;28;20447;-71
2023/03/10 08:02:41;;;;;;;6.37;2.17;;;8.90;99.90;;;;;;5026165;28;20181;-71
2023/03/10 08:05:07;;;;;;;1.90;1.40;;;8.90;99.90;;;;;;5036780;28;20531;-72
2023/03/10 08:07:33;;;;;;;2.53;1.63;;;8.80;99.90;;;;;;5028358;28;20510;-71
2023/03/10 08:09:58;;;;;;;4.03;1.50;;;8.70;99.90;;;;;;5037833;28;20431;-70
2023/03/10 08:12:24;;;;;;;1.80;0.93;;;8.60;99.90;;;;;;5033628;28;20174;-71
2023/03/10 08:14:50;;;;;;;4.50;1.00;;;8.60;99.90;;;;;;5035514;28;20181;-71
2023/03/10 08:17:16;;;;;;;1.70;1.37;;;8.50;99.90;;;;;;5030747;28;20271;-71
2023/03/10 08:19:42;;;;;;;3.33;1.10;;;8.40;99.90;;;;;;5037391;28;20432;-70
2023/03/10 08:22:09;;;;;;;1.97;1.47;;;8.40;99.90;;;;;;5042132;28;20224;-70
2023/03/10 08:24:36;;;;;;;5.03;1.67;;;8.40;99.90;;;;;;5032468;28;20178;-71
2023/03/10 08:27:01;;;;;;;5.00;1.53;;;8.30;99.90;;;;;;5035346;28;20534;-70
2023/03/10 08:29:27;;;;;;;3.03;1.63;;;8.40;99.90;;;;;;5035578;28;20843;-71
2023/03/10 08:31:52;;;;;;;1.40;1.00;;;8.40;99.90;;;;;;5046115;28;20185;-70
2023/03/10 08:34:18;;;;;;;2.53;1.17;;;8.40;99.90;;;;;;5038903;28;20174;-70
2023/03/10 08:36:43;;;;;;;1.20;0.90;;;8.40;99.90;;;;;;5032634;28;20561;-71
2023/03/10 08:39:11;;;;;;;1.57;1.03;;;8.40;99.90;;;;;;5026485;28;20186;-70
2023/03/10 08:41:44;;;;;;;1.67;0.90;;;8.40;99.90;;;;;;5032021;28;20205;-71
2023/03/10 08:44:14;;;;;;;1.23;0.87;;;8.50;99.90;;;;;;5038152;28;20441;-70
2023/03/10 08:46:40;;;;;;;1.73;1.10;;;9.10;99.90;;;;;;5040406;28;20553;-69
2023/03/10 08:49:06;;;;;;;2.30;1.07;;;9.90;99.90;;;;;;5040959;28;20471;-69
2023/03/10 08:51:31;;;;;;;2.40;1.83;;;10.70;99.90;;;;;;5044205;28;20460;-69
2023/03/10 08:53:57;;;;;;;1.53;0.90;;;11.10;99.90;;;;;;5029670;28;20181;-70
2023/03/10 08:56:24;;;;;;;3.90;2.10;;;10.90;99.90;;;;;;5024038;28;20206;-69
2023/03/10 08:58:53;;;;;;;2.07;0.90;;;10.60;99.90;;;;;;5035535;28;20205;-70
2023/03/10 09:01:18;;;;;;;1.30;1.00;;;10.30;99.90;;;;;;5035415;28;20477;-71
2023/03/10 09:03:45;;;;;;;3.80;2.10;;;10.20;99.90;;;;;;5042035;28;20949;-69
2023/03/10 09:06:11;;;;;;;2.33;1.50;;;10.40;99.90;;;;;;5034125;28;20213;-69
2023/03/10 09:08:38;;;;;;;2.07;1.23;;;10.90;99.90;;;;;;5040302;28;20546;-70
2023/03/10 09:11:04;;;;;;;1.07;0.70;;;11.70;99.90;;;;;;5053440;28;20532;-69
2023/03/10 09:13:29;;;;;;;1.20;1.00;;;11.90;99.90;;;;;;5055941;28;20884;-70
2023/03/10 09:15:55;;;;;;;4.00;3.63;;;12.10;99.90;;;;;;5045481;28;20186;-70
2023/03/10 09:18:20;;;;;;;2.37;1.33;;;12.60;99.90;;;;;;5039297;28;20220;-70
2023/03/10 09:20:46;;;;;;;2.77;1.80;;;13.30;99.90;;;;;;5038918;28;20202;-70
2023/03/10 09:23:13;;;;;;;2.37;2.13;;;14.00;99.90;;;;;;5047308;28;20192;-70
2023/03/10 09:25:39;;;;;;;3.67;1.63;;;14.40;99.90;;;;;;5048041;28;20180;-70
2023/03/10 09:28:06;;;;;;;3.30;1.43;;;13.80;99.90;;;;;;5041450;28;20460;-69
2023/03/10 09:30:36;;;;;;;1.53;1.00;;;13.10;99.90;;;;;;5035806;28;20441;-69
2023/03/10 09:33:02;;;;;;;1.63;0.80;;;13.60;99.90;;;;;;5034128;28;20439;-70
2023/03/10 09:35:28;;;;;;;2.43;1.00;;;14.20;99.90;;;;;;5042970;28;20431;-70
2023/03/10 09:37:53;;;;;;;2.87;1.17;;;14.10;99.90;;;;;;5050988;28;20460;-70
2023/03/10 09:40:20;;;;;;;4.60;1.50;;;14.70;99.90;;;;;;5037340;28;20178;-70
2023/03/10 09:42:56;;;;;;;2.77;1.70;;;14.80;99.90;;;;;;5040753;28;20574;-71
2023/03/10 09:45:33;;;;;;;2.17;1.90;;;15.00;99.90;;;;;;5041331;28;20428;-70
2023/03/10 09:48:24;;;;;;;1.20;0.67;;;14.30;99.90;;;;;;5052706;28;20816;-70
2023/03/10 09:50:51;;;;;;;2.30;1.00;;;13.70;99.90;;;;;;5044057;28;20443;-70
2023/03/10 09:53:38;;;;;;;2.20;0.97;;;13.30;99.90;;;;;;5039700;28;20502;-70
2023/03/10 09:56:11;;;;;;;2.80;1.27;;;12.80;99.90;;;;;;5039494;28;20446;-70
2023/03/10 09:58:42;;;;;;;3.10;1.23;;;12.60;99.90;;;;;;5036170;28;20467;-70
2023/03/10 10:01:18;;;;;;;1.47;1.00;;;12.30;99.90;;;;;;5042134;28;20965;-69
2023/03/10 10:03:58;;;;;;;1.93;1.20;;;12.20;99.90;;;;;;5045575;28;20462;-70
2023/03/10 10:06:32;;;;;;;3.03;1.10;;;12.40;99.90;;;;;;5041759;28;20542;-70
2023/03/10 10:09:02;;;;;;;3.17;1.20;;;12.30;99.90;;;;;;5035797;28;20931;-70
2023/03/10 10:11:28;;;;;;;2.20;1.27;;;12.20;99.90;;;;;;5043911;28;20431;-71
2023/03/10 10:14:33;;;;;;;2.00;0.80;;;12.10;99.90;;;;;;5048827;28;21138;-70
2023/03/10 10:17:12;;;;;;;1.80;0.90;;;11.90;99.90;;;;;;5018854;28;20209;-71
2023/03/10 10:19:39;;;;;;;0.90;0.73;;;11.50;99.90;;;;;;5050947;28;20856;-70
2023/03/10 10:22:16;;;;;;;2.03;0.70;;;11.20;99.90;;;;;;5037087;28;20946;-70
2023/03/10 10:25:11;;;;;;;2.27;1.00;;;11.20;99.90;;;;;;5038896;28;20510;-69
2023/03/10 10:27:37;;;;;;;3.90;1.47;;;11.10;99.90;;;;;;5032766;28;21234;-69
2023/03/10 10:30:28;;;;;;;1.80;1.17;;;10.90;99.90;;;;;;5037140;28;20433;-70
2023/03/10 10:33:02;;;;;;;4.40;0.90;;;10.90;99.90;;;;;;5036805;28;20420;-69
2023/03/10 10:35:36;;;;;;;2.50;1.10;;;10.90;99.90;;;;;;5049767;28;20450;-69
2023/03/10 10:38:09;;;;;;;4.23;1.50;;;10.90;99.90;;;;;;5041407;28;20810;-70
2023/03/10 10:40:50;;;;;;;4.33;0.77;;;10.70;99.90;;;;;;5024374;28;20432;-70
2023/03/10 10:43:18;;;;;;;1.10;0.97;;;10.40;99.90;;;;;;5034042;28;20433;-70
2023/03/10 10:45:49;;;;;;;0.90;0.80;;;10.30;99.90;;;;;;5035507;28;20428;-69
2023/03/10 10:48:32;;;;;;;1.90;0.80;;;10.30;99.90;;;;;;5042520;28;20464;-69
2023/03/10 10:50:57;;;;;;;5.57;2.10;;;10.30;99.90;;;;;;5031685;28;20471;-69
2023/03/10 10:53:25;;;;;;;3.33;1.30;;;10.30;99.90;;;;;;5029040;28;20807;-70
2023/03/10 10:56:05;;;;;;;2.30;1.37;;;10.40;99.90;;;;;;5038224;28;20531;-70
2023/03/10 10:58:36;;;;;;;3.53;2.27;;;10.50;99.90;;;;;;5042412;28;20463;-71
2023/03/10 11:01:11;;;;;;;3.90;1.27;;;10.50;99.90;;;;;;5039501;28;20530;-70
2023/03/10 11:03:45;;;;;;;3.00;0.70;;;10.60;99.90;;;;;;5033303;28;20457;-70
2023/03/10 11:06:27;;;;;;;3.07;1.00;;;10.60;99.90;;;;;;5031825;28;20558;-70
2023/03/10 11:09:08;;;;;;;1.30;0.93;;;10.70;99.90;;;;;;5036902;28;20462;-70
2023/03/10 11:12:06;;;;;;;1.57;0.80;;;10.70;99.90;;;;;;5033342;28;20435;-69
2023/03/10 11:14:48;;;;;;;0.70;0.70;;;10.60;99.90;;;;;;5036634;28;20460;-70
2023/03/10 11:17:22;;;;;;;2.17;0.93;;;10.50;99.90;;;;;;5043991;28;20674;-69
2023/03/10 11:20:07;;;;;;;1.60;1.03;;;10.60;99.90;;;;;;5029278;28;20441;-70
2023/03/10 11:22:38;;;;;;;5.17;1.20;;;10.60;99.90;;;;;;5027187;28;20544;-70
2023/03/10 11:25:17;;;;;;;3.60;1.20;;;10.80;99.90;;;;;;5030410;28;20440;-69
2023/03/10 11:27:56;;;;;;;1.00;0.60;;;10.70;99.90;;;;;;5032033;28;20471;-69
2023/03/10 11:30:34;;;;;;;4.53;1.00;;;10.60;99.90;;;;;;5026756;28;20472;-74
2023/03/10 11:33:19;;;;;;;1.87;0.87;;;10.60;99.90;;;;;;5032657;28;20471;-70
2023/03/10 11:35:50;;;;;;;2.10;1.17;;;10.60;99.90;;;;;;5032728;28;20540;-70
2023/03/10 11:38:39;;;;;;;2.60;1.20;;;10.70;99.90;;;;;;5036076;28;20547;-70
2023/03/10 11:41:13;;;;;;;2.60;0.80;;;10.60;99.90;;;;;;5037269;28;20453;-71
2023/03/10 11:44:09;;;;;;;1.53;1.37;;;10.70;99.90;;;;;;5032577;28;20478;-70
2023/03/10 11:46:53;;;;;;;2.43;1.13;;;10.70;99.90;;;;;;5032793;28;20828;-66
2023/03/10 11:49:23;;;;;;;5.73;3.37;;;10.70;99.90;;;;;;5032511;28;20428;-68
2023/03/10 11:51:55;;;;;;;2.60;1.47;;;10.50;99.90;;;;;;5039091;28;20954;-70
2023/03/10 11:54:40;;;;;;;2.93;1.33;;;10.50;99.90;;;;;;5028942;28;20438;-69
2023/03/10 11:57:16;;;;;;;1.77;1.67;;;10.40;99.90;;;;;;5028824;28;20463;-68
2023/03/10 12:00:06;;;;;;;1.97;1.10;;;10.30;99.90;;;;;;5033387;28;20509;-67
2023/03/10 12:03:02;;;;;;;2.30;0.90;;;10.50;99.90;;;;;;5032011;28;20520;-68
2023/03/10 12:05:44;;;;;;;1.97;1.77;;;10.90;99.90;;;;;;5018967;28;20950;-69
2023/03/10 12:08:11;;;;;;;5.40;1.47;;;11.10;99.90;;;;;;5026756;28;20977;-68
2023/03/10 12:10:40;;;;;;;2.90;1.53;;;11.60;99.90;;;;;;5034372;28;20965;-71
2023/03/10 12:13:13;;;;;;;1.20;0.90;;;12.70;99.90;;;;;;5028476;28;21157;-70
2023/03/10 12:15:38;;;;;;;0.87;0.80;;;13.50;99.90;;;;;;5031383;28;20440;-71
2023/03/10 12:18:06;;;;;;;1.17;0.83;;;13.70;99.90;;;;;;5031784;28;20512;-72
2023/03/10 12:20:34;;;;;;;1.17;0.97;;;13.40;99.90;;;;;;5031581;28;20178;-70
2023/03/10 12:23:25;;;;;;;1.17;0.90;;;13.00;99.90;;;;;;5033812;28;20443;-70
2023/03/10 12:25:51;;;;;;;1.43;1.00;;;12.50;99.90;;;;;;5042300;28;20910;-71
2023/03/10 12:28:21;;;;;;;2.90;0.80;;;12.00;99.90;;;;;;5038283;28;20487;-70
2023/03/10 12:30:51;;;;;;;2.13;0.80;;;11.80;99.90;;;;;;5035763;28;20690;-71
2023/03/10 12:33:38;;;;;;;0.70;0.67;;;11.60;99.90;;;;;;5033723;28;20441;-71
2023/03/10 12:36:34;;;;;;;2.53;1.30;;;11.30;99.90;;;;;;5029480;28;20527;-72
2023/03/10 12:39:29;;;;;;;1.67;0.67;;;11.20;99.90;;;;;;5026805;28;20460;-71
2023/03/10 12:42:02;;;;;;;1.33;0.60;;;11.10;99.90;;;;;;5027148;28;20467;-70
2023/03/10 12:44:35;;;;;;;2.10;1.17;;;11.00;99.90;;;;;;5035319;28;20468;-71
2023/03/10 12:47:16;;;;;;;3.00;1.50;;;11.20;99.90;;;;;;5037149;28;20495;-71
2023/03/10 12:49:57;;;;;;;2.83;0.90;;;11.40;99.90;;;;;;5031474;28;20436;-71
2023/03/10 12:52:46;;;;;;;2.07;1.27;;;11.30;99.90;;;;;;5025755;28;20495;-71
2023/03/10 12:55:23;;;;;;;1.07;0.80;;;11.00;99.90;;;;;;5027755;28;20437;-70
2023/03/10 12:57:57;;;;;;;0.70;0.70;;;10.80;99.90;;;;;;5031665;28;20571;-71
2023/03/10 13:00:43;;;;;;;1.27;1.10;;;10.70;99.90;;;;;;5023945;28;20441;-71
2023/03/10 13:03:09;;;;;;;1.17;0.60;;;10.70;99.90;;;;;;5025169;28;20445;-71
2023/03/10 13:05:41;;;;;;;2.73;1.00;;;10.60;99.90;;;;;;5032332;28;20512;-71